createdAt,value
2018-05-23T00:01:36.067Z,14.30
2018-05-23T00:04:42.165Z,14.23
2018-05-23T00:07:48.216Z,14.21
2018-05-23T00:10:53.522Z,14.19
2018-05-23T00:13:59.688Z,14.16
2018-05-23T00:17:05.289Z,14.09
2018-05-23T00:20:11.313Z,14.07
2018-05-23T00:23:17.246Z,14.07
2018-05-23T00:26:22.942Z,14.00
2018-05-23T00:29:27.573Z,13.96
2018-05-23T00:32:32.801Z,13.92
2018-05-23T00:35:38.016Z,13.90
2018-05-23T00:38:43.209Z,13.84
2018-05-23T00:41:48.901Z,13.79
2018-05-23T00:44:53.820Z,13.75
2018-05-23T00:47:59.032Z,13.73
2018-05-23T00:51:05.153Z,13.72
2018-05-23T00:54:11.113Z,13.66
2018-05-23T00:57:16.326Z,13.68
2018-05-23T01:00:21.974Z,13.60
2018-05-23T01:03:26.578Z,13.55
2018-05-23T01:06:31.769Z,13.53
2018-05-23T01:09:36.990Z,13.48
2018-05-23T01:12:42.185Z,13.45
2018-05-23T01:15:47.072Z,13.43
2018-05-23T01:18:52.185Z,13.42
2018-05-23T01:21:57.401Z,13.37
2018-05-23T01:25:03.535Z,13.35
2018-05-23T01:28:08.465Z,13.31
2018-05-23T01:31:14.181Z,13.26
2018-05-23T01:34:19.999Z,13.21
2018-05-23T01:37:25.897Z,13.17
2018-05-23T01:40:31.856Z,13.12
2018-05-23T01:43:37.305Z,13.09
2018-05-23T01:46:44.456Z,13.06
2018-05-23T01:49:49.998Z,13.02
2018-05-23T01:52:56.141Z,12.99
2018-05-23T01:56:01.353Z,12.96
2018-05-23T01:59:06.553Z,12.93
2018-05-23T02:02:12.359Z,12.89
2018-05-23T02:05:17.316Z,12.86
2018-05-23T02:08:22.517Z,12.84
2018-05-23T02:11:27.495Z,12.82
2018-05-23T02:14:32.698Z,12.78
2018-05-23T02:17:37.894Z,12.72
2018-05-23T02:20:42.785Z,12.71
2018-05-23T02:23:47.972Z,12.69
2018-05-23T02:26:53.189Z,12.67
2018-05-23T02:29:58.401Z,12.63
2018-05-23T02:33:03.635Z,12.58
2018-05-23T02:36:09.953Z,12.56
2018-05-23T02:39:15.877Z,12.53
2018-05-23T02:42:21.758Z,12.52
2018-05-23T02:45:27.648Z,12.45
2018-05-23T02:48:33.881Z,12.43
2018-05-23T02:51:39.790Z,12.41
2018-05-23T02:54:45.826Z,12.42
2018-05-23T02:57:51.429Z,12.36
2018-05-23T03:00:57.134Z,12.37
2018-05-23T03:04:02.333Z,12.32
2018-05-23T03:07:07.984Z,12.28
2018-05-23T03:10:13.186Z,12.29
2018-05-23T03:13:19.199Z,12.24
2018-05-23T03:16:25.225Z,12.20
2018-05-23T03:19:31.200Z,12.17
2018-05-23T03:22:36.921Z,12.19
2018-05-23T03:25:43.042Z,12.13
2018-05-23T03:28:48.939Z,12.12
2018-05-23T03:31:55.983Z,12.06
2018-05-23T03:35:01.817Z,12.07
2018-05-23T03:38:07.741Z,12.05
2018-05-23T03:41:14.230Z,12.06
2018-05-23T03:44:19.421Z,12.03
2018-05-23T03:47:24.630Z,12.04
2018-05-23T03:50:29.844Z,12.04
2018-05-23T03:53:35.857Z,12.02
2018-05-23T03:56:41.561Z,12.01
2018-05-23T03:59:58.798Z,12.00
2018-05-23T04:03:15.379Z,12.02
2018-05-23T04:10:20.450Z,12.08
2018-05-23T04:13:26.609Z,12.21
2018-05-23T04:16:32.212Z,12.37
2018-05-23T04:19:38.423Z,12.32
2018-05-23T04:22:43.652Z,12.41
2018-05-23T04:25:48.864Z,12.49
2018-05-23T04:28:55.161Z,12.52
2018-05-23T04:32:00.381Z,12.59
2018-05-23T04:35:05.599Z,12.63
2018-05-23T04:38:10.814Z,12.66
2018-05-23T04:41:16.015Z,12.68
2018-05-23T04:44:21.230Z,12.67
2018-05-23T04:47:26.156Z,12.71
2018-05-23T04:50:32.159Z,12.76
2018-05-23T04:53:38.176Z,12.79
2018-05-23T04:56:43.402Z,12.82
2018-05-23T04:59:48.613Z,12.85
2018-05-23T05:02:54.221Z,12.91
2018-05-23T05:05:59.437Z,12.95
2018-05-23T05:09:03.844Z,13.00
2018-05-23T05:12:08.528Z,13.05
2018-05-23T05:15:14.455Z,13.10
2018-05-23T05:18:20.679Z,13.16
2018-05-23T05:21:26.453Z,13.22
2018-05-23T05:24:32.674Z,13.28
2018-05-23T05:27:38.241Z,13.33
2018-05-23T05:30:44.177Z,13.39
2018-05-23T05:33:49.922Z,13.45
2018-05-23T05:36:55.967Z,13.52
2018-05-23T05:40:01.934Z,13.59
2018-05-23T05:43:08.113Z,13.65
2018-05-23T05:46:13.925Z,13.73
2018-05-23T05:49:19.869Z,13.80
2018-05-23T05:52:26.193Z,13.87
2018-05-23T05:55:31.397Z,13.94
2018-05-23T05:58:37.519Z,14.00
2018-05-23T06:01:44.871Z,14.07
2018-05-23T06:04:50.773Z,14.16
2018-05-23T06:07:55.976Z,14.24
2018-05-23T06:11:01.826Z,14.32
2018-05-23T06:14:07.974Z,14.39
2018-05-23T06:17:13.899Z,14.48
2018-05-23T06:20:19.816Z,14.56
2018-05-23T06:23:25.270Z,14.66
2018-05-23T06:26:31.491Z,14.74
2018-05-23T06:29:37.438Z,14.82
2018-05-23T06:32:43.374Z,14.91
2018-05-23T06:35:49.494Z,14.99
2018-05-23T06:38:55.704Z,15.06
2018-05-23T06:42:00.886Z,15.14
2018-05-23T06:45:05.696Z,15.23
2018-05-23T06:48:10.897Z,15.30
2018-05-23T06:51:16.105Z,15.37
2018-05-23T06:54:21.305Z,15.45
2018-05-23T06:57:26.526Z,15.53
2018-05-23T07:00:31.752Z,15.60
2018-05-23T07:03:36.950Z,15.67
2018-05-23T07:06:42.154Z,15.76
2018-05-23T07:09:47.370Z,15.84
2018-05-23T07:12:52.573Z,15.93
2018-05-23T07:15:58.347Z,16.01
2018-05-23T07:19:04.049Z,16.10
2018-05-23T07:22:10.083Z,16.20
2018-05-23T07:25:15.289Z,16.30
2018-05-23T07:28:20.917Z,16.38
2018-05-23T07:31:27.041Z,16.47
2018-05-23T07:34:32.682Z,16.56
2018-05-23T07:37:37.874Z,16.65
2018-05-23T07:40:43.077Z,16.74
2018-05-23T07:43:49.183Z,16.84
2018-05-23T07:46:56.234Z,16.93
2018-05-23T07:50:01.518Z,17.03
2018-05-23T07:53:07.145Z,17.13
2018-05-23T07:56:13.175Z,17.25
2018-05-23T07:59:19.215Z,17.35
2018-05-23T08:02:25.246Z,17.46
2018-05-23T08:05:31.185Z,17.57
2018-05-23T08:08:36.404Z,17.68
2018-05-23T08:11:42.429Z,17.80
2018-05-23T08:14:48.346Z,17.92
2018-05-23T08:17:53.553Z,18.03
2018-05-23T08:20:58.748Z,18.15
2018-05-23T08:24:04.266Z,18.26
2018-05-23T08:27:10.154Z,18.38
2018-05-23T08:30:16.007Z,18.50
2018-05-23T08:33:22.128Z,18.62
2018-05-23T08:36:27.420Z,18.76
2018-05-23T08:39:33.454Z,18.88
2018-05-23T08:42:39.461Z,19.01
2018-05-23T08:45:44.674Z,19.15
2018-05-23T08:48:49.868Z,19.28
2018-05-23T08:51:55.082Z,19.41
2018-05-23T08:55:00.313Z,19.52
2018-05-23T08:58:04.997Z,19.61
2018-05-23T09:01:10.198Z,19.73
2018-05-23T09:04:15.406Z,19.86
2018-05-23T09:07:20.611Z,19.96
2018-05-23T09:10:25.497Z,20.08
2018-05-23T09:13:30.690Z,20.18
2018-05-23T09:16:36.841Z,20.29
2018-05-23T09:19:42.978Z,20.40
2018-05-23T09:22:48.997Z,20.52
2018-05-23T09:25:55.131Z,20.61
2018-05-23T09:29:01.047Z,20.72
2018-05-23T09:32:07.164Z,20.82
2018-05-23T09:35:13.373Z,20.91
2018-05-23T09:38:19.381Z,21.02
2018-05-23T09:41:25.444Z,21.14
2018-05-23T09:44:31.563Z,21.29
2018-05-23T09:47:37.610Z,21.44
2018-05-23T09:50:43.642Z,21.57
2018-05-23T09:53:49.764Z,21.71
2018-05-23T09:56:54.986Z,21.84
2018-05-23T10:00:00.603Z,21.92
2018-05-23T10:03:05.546Z,22.01
2018-05-23T10:06:11.636Z,22.14
2018-05-23T10:09:17.791Z,22.21
2018-05-23T10:12:23.002Z,22.30
2018-05-23T10:15:28.730Z,22.33
2018-05-23T10:18:34.781Z,22.39
2018-05-23T10:21:40.802Z,22.48
2018-05-23T10:24:46.725Z,22.52
2018-05-23T10:27:52.648Z,22.57
2018-05-23T10:30:58.770Z,22.64
2018-05-23T10:34:04.480Z,22.70
2018-05-23T10:37:09.393Z,22.74
2018-05-23T10:40:14.634Z,22.84
2018-05-23T10:43:35.149Z,22.88
2018-05-23T10:46:41.194Z,22.91
2018-05-23T10:49:46.906Z,23.00
2018-05-23T10:52:52.125Z,23.03
2018-05-23T10:55:57.362Z,23.06
2018-05-23T10:59:03.406Z,23.09
2018-05-23T11:02:09.145Z,23.10
2018-05-23T11:05:14.344Z,23.11
2018-05-23T11:08:19.565Z,23.13
2018-05-23T11:11:24.765Z,23.13
2018-05-23T11:14:29.981Z,23.14
2018-05-23T11:17:35.195Z,23.16
2018-05-23T11:20:40.397Z,23.18
2018-05-23T11:23:46.649Z,23.17
2018-05-23T11:26:54.260Z,23.21
2018-05-23T11:30:00.592Z,23.24
2018-05-23T11:33:05.994Z,23.24
2018-05-23T11:36:11.832Z,23.26
2018-05-23T11:39:17.953Z,23.28
2018-05-23T11:42:23.638Z,23.30
2018-05-23T11:45:28.817Z,23.31
2018-05-23T11:48:35.578Z,23.33
2018-05-23T11:51:41.189Z,23.38
2018-05-23T11:54:46.243Z,23.43
2018-05-23T11:57:51.573Z,23.48
2018-05-23T12:00:56.793Z,23.54
2018-05-23T12:04:01.994Z,23.61
2018-05-23T12:07:08.113Z,23.67
2018-05-23T12:10:14.245Z,23.71
2018-05-23T12:13:19.583Z,23.78
2018-05-23T12:16:24.785Z,23.79
2018-05-23T12:19:30.091Z,23.81
2018-05-23T12:22:36.260Z,23.82
2018-05-23T12:25:42.266Z,23.84
2018-05-23T12:28:48.284Z,23.83
2018-05-23T12:31:54.069Z,23.86
2018-05-23T12:34:59.279Z,23.88
2018-05-23T12:38:04.876Z,23.91
2018-05-23T12:41:10.606Z,23.97
2018-05-23T12:44:16.712Z,24.03
2018-05-23T12:47:21.921Z,24.06
2018-05-23T12:50:27.557Z,24.12
2018-05-23T12:53:33.476Z,24.17
2018-05-23T12:56:39.506Z,24.20
2018-05-23T12:59:45.541Z,24.23
2018-05-23T13:02:51.690Z,24.28
2018-05-23T13:05:57.621Z,24.30
2018-05-23T13:09:03.082Z,24.31
2018-05-23T13:12:08.017Z,24.31
2018-05-23T13:15:13.645Z,24.33
2018-05-23T13:18:19.575Z,24.34
2018-05-23T13:21:24.788Z,24.37
2018-05-23T13:24:30.721Z,24.36
2018-05-23T13:27:36.739Z,24.38
2018-05-23T13:30:42.299Z,24.40
2018-05-23T13:33:47.507Z,24.44
2018-05-23T13:36:52.747Z,24.44
2018-05-23T13:39:57.942Z,24.47
2018-05-23T13:43:03.153Z,24.47
2018-05-23T13:46:09.297Z,24.48
2018-05-23T13:49:15.398Z,24.50
2018-05-23T13:52:21.526Z,24.52
2018-05-23T13:55:27.490Z,24.57
2018-05-23T13:58:32.782Z,24.59
2018-05-23T14:01:37.989Z,24.64
2018-05-23T14:04:43.185Z,24.65
2018-05-23T14:07:49.352Z,24.63
2018-05-23T14:10:54.571Z,24.65
2018-05-23T14:14:00.861Z,24.62
2018-05-23T14:17:06.882Z,24.61
2018-05-23T14:20:12.797Z,24.63
2018-05-23T14:23:18.953Z,24.66
2018-05-23T14:26:24.170Z,24.67
2018-05-23T14:29:29.380Z,24.70
2018-05-23T14:32:34.795Z,24.73
2018-05-23T14:35:40.945Z,24.72
2018-05-23T14:38:46.963Z,24.73
2018-05-23T14:41:53.507Z,24.74
2018-05-23T14:44:58.679Z,24.75
2018-05-23T14:48:04.797Z,24.75
2018-05-23T14:51:10.009Z,24.73
2018-05-23T14:54:15.223Z,24.70
2018-05-23T14:57:20.443Z,24.71
2018-05-23T15:00:26.351Z,24.71
2018-05-23T15:03:32.485Z,24.69
2018-05-23T15:06:38.293Z,24.67
2018-05-23T15:09:43.910Z,24.67
2018-05-23T15:12:49.102Z,24.67
2018-05-23T15:15:54.517Z,24.65
2018-05-23T15:18:59.718Z,24.61
2018-05-23T15:22:04.639Z,24.55
2018-05-23T15:25:10.347Z,24.52
2018-05-23T15:28:16.382Z,24.53
2018-05-23T15:31:22.570Z,24.54
2018-05-23T15:34:28.681Z,24.52
2018-05-23T15:37:37.068Z,24.51
2018-05-23T15:40:42.293Z,24.51
2018-05-23T15:43:48.405Z,24.47
2018-05-23T15:46:54.022Z,24.44
2018-05-23T15:50:00.136Z,24.43
2018-05-23T15:53:06.187Z,24.40
2018-05-23T15:56:12.117Z,24.35
2018-05-23T15:59:18.039Z,24.29
2018-05-23T16:02:23.748Z,24.25
2018-05-23T16:05:28.960Z,24.22
2018-05-23T16:08:35.326Z,24.16
2018-05-23T16:11:41.521Z,24.10
2018-05-23T16:14:47.524Z,24.02
2018-05-23T16:17:53.534Z,23.97
2018-05-23T16:20:59.592Z,23.90
2018-05-23T16:24:05.725Z,23.83
2018-05-23T16:27:11.774Z,23.77
2018-05-23T16:30:16.999Z,23.71
2018-05-23T16:33:22.358Z,23.63
2018-05-23T16:36:28.273Z,23.55
2018-05-23T16:39:34.974Z,23.47
2018-05-23T16:42:40.832Z,23.40
2018-05-23T16:45:46.053Z,23.33
2018-05-23T16:48:52.190Z,23.26
2018-05-23T16:51:58.410Z,23.18
2018-05-23T16:55:04.245Z,23.12
2018-05-23T16:58:10.352Z,23.06
2018-05-23T17:01:15.651Z,23.00
2018-05-23T17:04:20.979Z,22.93
2018-05-23T17:07:27.853Z,22.86
2018-05-23T17:10:34.464Z,22.77
2018-05-23T17:13:39.426Z,22.70
2018-05-23T17:16:44.360Z,22.63
2018-05-23T17:19:50.080Z,22.55
2018-05-23T17:22:56.198Z,22.48
2018-05-23T17:26:02.325Z,22.40
2018-05-23T17:29:08.064Z,22.32
2018-05-23T17:32:13.997Z,22.24
2018-05-23T17:35:20.139Z,22.14
2018-05-23T17:38:26.267Z,22.06
2018-05-23T17:41:32.433Z,22.00
2018-05-23T17:44:38.597Z,21.90
2018-05-23T17:47:43.889Z,21.81
2018-05-23T17:50:49.892Z,21.74
2018-05-23T17:53:56.036Z,21.67
2018-05-23T17:57:01.313Z,21.60
2018-05-23T18:00:06.390Z,21.52
2018-05-23T18:03:11.618Z,21.45
2018-05-23T18:06:17.597Z,21.38
2018-05-23T18:09:23.890Z,21.30
2018-05-23T18:12:29.093Z,21.23
2018-05-23T18:15:34.309Z,21.15
2018-05-23T18:18:39.933Z,21.07
2018-05-23T18:21:45.170Z,20.99
2018-05-23T18:24:50.795Z,20.91
2018-05-23T18:27:56.941Z,20.83
2018-05-23T18:31:02.178Z,20.76
2018-05-23T18:34:07.388Z,20.68
2018-05-23T18:37:13.529Z,20.59
2018-05-23T18:40:19.457Z,20.52
2018-05-23T18:43:25.194Z,20.43
2018-05-23T18:46:31.249Z,20.37
2018-05-23T18:49:37.141Z,20.28
2018-05-23T18:52:42.385Z,20.18
2018-05-23T18:55:49.416Z,20.08
2018-05-23T18:58:55.249Z,20.00
2018-05-23T19:02:01.091Z,19.94
2018-05-23T19:05:06.455Z,19.85
2018-05-23T19:08:11.451Z,19.77
2018-05-23T19:11:16.668Z,19.71
2018-05-23T19:14:21.881Z,19.63
2018-05-23T19:17:26.842Z,19.53
2018-05-23T19:20:32.589Z,19.48
2018-05-23T19:23:37.974Z,19.39
2018-05-23T19:26:43.209Z,19.33
2018-05-23T19:29:48.969Z,19.24
2018-05-23T19:32:56.102Z,19.17
2018-05-23T19:36:01.306Z,19.10
2018-05-23T19:39:07.349Z,19.04
2018-05-23T19:42:13.277Z,18.97
2018-05-23T19:45:19.103Z,18.88
2018-05-23T19:48:25.432Z,18.82
2018-05-23T19:51:31.050Z,18.75
2018-05-23T19:54:36.928Z,18.67
2018-05-23T19:57:42.157Z,18.58
2018-05-23T20:00:47.369Z,18.54
2018-05-23T20:03:52.596Z,18.44
2018-05-23T20:06:58.627Z,18.36
2018-05-23T20:10:03.585Z,18.32
2018-05-23T20:13:08.522Z,18.25
2018-05-23T20:16:13.389Z,18.14
2018-05-23T20:19:19.333Z,18.11
2018-05-23T20:22:25.158Z,18.06
2018-05-23T20:25:31.321Z,17.96
2018-05-23T20:28:36.245Z,17.89
2018-05-23T20:31:41.541Z,17.87
2018-05-23T20:34:46.458Z,17.83
2018-05-23T20:37:52.118Z,17.78
2018-05-23T20:40:57.461Z,17.65
2018-05-23T20:44:02.391Z,17.58
2018-05-23T20:47:07.947Z,17.53
2018-05-23T20:50:12.870Z,17.49
2018-05-23T20:53:18.219Z,17.37
2018-05-23T20:56:23.561Z,17.32
2018-05-23T20:59:30.309Z,17.25
2018-05-23T21:02:36.510Z,17.17
2018-05-23T21:05:41.531Z,17.11
2018-05-23T21:08:46.682Z,17.06
2018-05-23T21:11:53.157Z,17.02
2018-05-23T21:14:58.077Z,16.93
2018-05-23T21:18:03.717Z,16.86
2018-05-23T21:21:09.609Z,16.80
2018-05-23T21:24:14.527Z,16.77
2018-05-23T21:27:20.473Z,16.69
2018-05-23T21:30:27.051Z,16.66
2018-05-23T21:33:31.973Z,16.58
2018-05-23T21:36:37.621Z,16.51
2018-05-23T21:39:42.594Z,16.46
2018-05-23T21:42:48.062Z,16.39
2018-05-23T21:45:52.993Z,16.32
2018-05-23T21:48:58.880Z,16.26
2018-05-23T21:52:03.585Z,16.24
2018-05-23T21:55:09.710Z,16.17
2018-05-23T21:58:15.637Z,16.05
2018-05-23T22:01:20.230Z,16.01
2018-05-23T22:04:25.880Z,15.91
2018-05-23T22:07:32.017Z,15.88
2018-05-23T22:10:37.431Z,15.84
2018-05-23T22:13:43.292Z,15.75
2018-05-23T22:16:48.727Z,15.72
2018-05-23T22:19:54.552Z,15.66
2018-05-23T22:22:59.494Z,15.60
2018-05-23T22:26:04.589Z,15.54
2018-05-23T22:29:10.534Z,15.50
2018-05-23T22:32:16.078Z,15.40
2018-05-23T22:35:21.014Z,15.34
2018-05-23T22:38:26.870Z,15.27
2018-05-23T22:41:31.785Z,15.21
2018-05-23T22:44:37.330Z,15.19
2018-05-23T22:47:42.773Z,15.11
2018-05-23T22:50:48.484Z,15.05
2018-05-23T22:53:54.049Z,15.03
2018-05-23T22:56:59.074Z,14.95
2018-05-23T23:00:03.951Z,14.92
2018-05-23T23:03:08.603Z,14.89
2018-05-23T23:06:14.553Z,14.83
2018-05-23T23:09:20.742Z,14.77
2018-05-23T23:12:26.865Z,14.71
2018-05-23T23:15:32.074Z,14.69
2018-05-23T23:18:37.270Z,14.65
2018-05-23T23:21:42.487Z,14.62
2018-05-23T23:24:47.459Z,14.55
2018-05-23T23:27:53.139Z,14.52
2018-05-23T23:30:59.105Z,14.46
2018-05-23T23:34:04.451Z,14.41
2018-05-23T23:37:10.565Z,14.39
2018-05-23T23:40:15.779Z,14.39
2018-05-23T23:43:21.408Z,14.35
2018-05-23T23:46:27.527Z,14.28
2018-05-23T23:49:33.439Z,14.25
2018-05-23T23:52:39.386Z,14.23
2018-05-23T23:55:44.601Z,14.18
2018-05-23T23:58:50.855Z,14.12
